Victoria, TX (77901)

12:51 AM CST on December 03, 2016 (GMT -0600)
Inwood Terrace | | Change Station

Elev 128 ft 28.83 °N, 96.97 °W | Updated 16 seconds ago

Overcast
Overcast
58.0 °F
Feels Like 58.0 °F
N
0.0
Wind Variable Wind from SW

Today
High -- | Low -- °F
--% Chance of Precip.
Yesterday
High -- | Low -- °F
Precip. -- in
Pressure 29.95 in
Visibility 10.0 miles
Clouds Overcast 1100 ft
Dew Point 53 °F
Humidity 85%
Rainfall 0.00 in
Snow Depth Not available.
7:05 AM 5:30 PM
Waxing Crescent, 13% visible
METAR KVCT 030551Z AUTO 04008KT 10SM OVC011 14/13 A2995 RMK AO2 SLP141 60000 T01440128 10178 20144 402060117 56010
Pressure 29.95 in
Visibility 10.0 miles
Clouds Overcast 1100 ft
Dew Point 53 °F
Humidity 85%
Rainfall 0.00 in
Snow Depth Not available.
7:05 AM 5:30 PM
Waxing Crescent, 13% visible
METAR KVCT 030551Z AUTO 04008KT 10SM OVC011 14/13 A2995 RMK AO2 SLP141 60000 T01440128 10178 20144 402060117 56010

10-Day Weather Forecast

Almanac

Astronomy

Dec. 03, 2016 Rise Set
Actual Time
Civil Twilight
Nautical Twilight
Astronomical Twilight
Moon
Length of Visible Light
Length of Day
Tomorrow will be .
, % of the Moon is Illuminated

Today's Extremes

State Highs State Lows

Community

WunderPhotos

Upload Photos

1,955,432 photos uploaded!

WunderBlog® & News

Nearby

Air Quality

  Air Quality AQ Index Pollutant
Not available.

Snow Depth

Station Depth Elevation

Earthquake Activity

City Distance Mag. Time & Date
Minimum magnitude displayed is 2.5.

Coastal Water Temperatures

Place Temperature

Stations

Nearby Weather Stations

Station Location Temp. Windchill Dew Point Humidity Wind Precip. Elev Updated Type
                   

Watches & Warnings

There are currently no watches in effect.